sensor_id;sensor_type;location;lat;lon;timestamp;P1;durP1;ratioP1;P2;durP2;ratioP2
2562;SDS011;1291;51.420;6.970;2023-04-30T11:21:24;5.63;;;3.25;;
2562;SDS011;1291;51.420;6.970;2023-04-30T11:23:50;2.90;;;2.60;;
2562;SDS011;1291;51.420;6.970;2023-04-30T11:26:16;3.03;;;2.72;;
2562;SDS011;1291;51.420;6.970;2023-04-30T11:28:49;4.18;;;3.25;;
2562;SDS011;1291;51.420;6.970;2023-04-30T11:31:16;7.20;;;2.50;;
2562;SDS011;1291;51.420;6.970;2023-04-30T11:33:42;2.25;;;2.05;;
2562;SDS011;1291;51.420;6.970;2023-04-30T11:36:07;4.35;;;2.33;;
2562;SDS011;1291;51.420;6.970;2023-04-30T11:38:33;2.85;;;2.42;;
2562;SDS011;1291;51.420;6.970;2023-04-30T11:41:03;3.25;;;2.85;;
2562;SDS011;1291;51.420;6.970;2023-04-30T11:43:30;2.30;;;1.88;;
2562;SDS011;1291;51.420;6.970;2023-04-30T11:48:40;3.60;;;2.60;;
2562;SDS011;1291;51.420;6.970;2023-04-30T11:51:18;3.00;;;2.35;;
2562;SDS011;1291;51.420;6.970;2023-04-30T11:53:46;3.65;;;2.30;;
2562;SDS011;1291;51.420;6.970;2023-04-30T11:56:12;3.50;;;2.70;;
2562;SDS011;1291;51.420;6.970;2023-04-30T11:58:38;2.60;;;2.40;;
2562;SDS011;1291;51.420;6.970;2023-04-30T12:01:07;2.50;;;2.30;;
2562;SDS011;1291;51.420;6.970;2023-04-30T12:03:40;3.67;;;2.70;;
2562;SDS011;1291;51.420;6.970;2023-04-30T12:06:20;1.80;;;1.70;;
2562;SDS011;1291;51.420;6.970;2023-04-30T12:08:46;2.40;;;2.20;;
2562;SDS011;1291;51.420;6.970;2023-04-30T12:11:22;2.15;;;1.75;;
2562;SDS011;1291;51.420;6.970;2023-04-30T12:16:45;1.70;;;1.60;;
2562;SDS011;1291;51.420;6.970;2023-04-30T12:19:13;1.55;;;1.45;;
2562;SDS011;1291;51.420;6.970;2023-04-30T12:21:40;2.00;;;1.80;;
2562;SDS011;1291;51.420;6.970;2023-04-30T12:24:09;2.67;;;2.40;;
2562;SDS011;1291;51.420;6.970;2023-04-30T12:26:39;2.15;;;1.92;;
2562;SDS011;1291;51.420;6.970;2023-04-30T12:29:16;1.63;;;1.52;;
2562;SDS011;1291;51.420;6.970;2023-04-30T12:31:42;3.15;;;1.85;;
2562;SDS011;1291;51.420;6.970;2023-04-30T12:34:10;2.30;;;1.88;;
2562;SDS011;1291;51.420;6.970;2023-04-30T12:36:37;2.45;;;2.20;;
2562;SDS011;1291;51.420;6.970;2023-04-30T12:39:15;2.65;;;2.45;;
2562;SDS011;1291;51.420;6.970;2023-04-30T12:41:44;2.40;;;2.20;;
2562;SDS011;1291;51.420;6.970;2023-04-30T12:46:40;1.88;;;1.60;;
2562;SDS011;1291;51.420;6.970;2023-04-30T12:49:09;4.63;;;1.90;;
2562;SDS011;1291;51.420;6.970;2023-04-30T12:51:35;1.80;;;1.45;;
2562;SDS011;1291;51.420;6.970;2023-04-30T12:54:00;2.40;;;1.70;;
2562;SDS011;1291;51.420;6.970;2023-04-30T12:56:26;1.60;;;1.50;;
2562;SDS011;1291;51.420;6.970;2023-04-30T12:58:51;2.03;;;1.83;;
2562;SDS011;1291;51.420;6.970;2023-04-30T13:01:18;1.52;;;1.42;;
2562;SDS011;1291;51.420;6.970;2023-04-30T13:03:45;1.95;;;1.80;;
2562;SDS011;1291;51.420;6.970;2023-04-30T13:06:10;1.92;;;1.65;;
2562;SDS011;1291;51.420;6.970;2023-04-30T13:08:36;1.85;;;1.75;;
2562;SDS011;1291;51.420;6.970;2023-04-30T13:11:01;2.38;;;2.17;;
2562;SDS011;1291;51.420;6.970;2023-04-30T13:13:28;1.92;;;1.83;;
2562;SDS011;1291;51.420;6.970;2023-04-30T13:15:53;2.85;;;1.55;;
2562;SDS011;1291;51.420;6.970;2023-04-30T13:18:18;3.33;;;1.80;;
2562;SDS011;1291;51.420;6.970;2023-04-30T13:20:44;2.35;;;1.63;;
2562;SDS011;1291;51.420;6.970;2023-04-30T13:23:09;2.47;;;1.80;;
2562;SDS011;1291;51.420;6.970;2023-04-30T13:25:38;2.03;;;1.80;;
2562;SDS011;1291;51.420;6.970;2023-04-30T13:28:04;3.35;;;1.83;;
2562;SDS011;1291;51.420;6.970;2023-04-30T13:30:29;2.30;;;1.55;;
2562;SDS011;1291;51.420;6.970;2023-04-30T13:32:55;2.63;;;1.70;;
2562;SDS011;1291;51.420;6.970;2023-04-30T13:35:20;2.42;;;1.30;;
2562;SDS011;1291;51.420;6.970;2023-04-30T13:37:46;2.20;;;2.00;;
2562;SDS011;1291;51.420;6.970;2023-04-30T13:40:16;1.50;;;1.40;;
2562;SDS011;1291;51.420;6.970;2023-04-30T13:42:43;3.22;;;1.50;;
2562;SDS011;1291;51.420;6.970;2023-04-30T13:45:10;1.45;;;1.33;;
2562;SDS011;1291;51.420;6.970;2023-04-30T13:47:36;1.95;;;1.35;;
2562;SDS011;1291;51.420;6.970;2023-04-30T13:50:02;2.15;;;1.60;;
2562;SDS011;1291;51.420;6.970;2023-04-30T13:52:27;1.70;;;1.60;;
2562;SDS011;1291;51.420;6.970;2023-04-30T13:54:53;2.85;;;1.35;;
2562;SDS011;1291;51.420;6.970;2023-04-30T13:57:21;1.45;;;1.35;;
2562;SDS011;1291;51.420;6.970;2023-04-30T13:59:47;1.45;;;1.35;;
2562;SDS011;1291;51.420;6.970;2023-04-30T14:02:13;1.58;;;1.48;;
2562;SDS011;1291;51.420;6.970;2023-04-30T14:04:38;3.33;;;1.50;;
2562;SDS011;1291;51.420;6.970;2023-04-30T14:07:04;1.75;;;1.25;;
2562;SDS011;1291;51.420;6.970;2023-04-30T14:09:29;1.73;;;1.20;;
2562;SDS011;1291;51.420;6.970;2023-04-30T14:11:55;1.88;;;1.50;;
2562;SDS011;1291;51.420;6.970;2023-04-30T14:14:22;1.52;;;1.42;;
2562;SDS011;1291;51.420;6.970;2023-04-30T14:16:48;2.25;;;1.23;;
2562;SDS011;1291;51.420;6.970;2023-04-30T14:19:14;1.83;;;1.55;;
2562;SDS011;1291;51.420;6.970;2023-04-30T14:21:39;3.92;;;1.70;;
2562;SDS011;1291;51.420;6.970;2023-04-30T14:24:05;1.92;;;1.52;;
2562;SDS011;1291;51.420;6.970;2023-04-30T14:26:33;2.13;;;1.42;;
2562;SDS011;1291;51.420;6.970;2023-04-30T14:28:58;2.15;;;1.67;;
2562;SDS011;1291;51.420;6.970;2023-04-30T14:31:24;2.33;;;1.38;;
2562;SDS011;1291;51.420;6.970;2023-04-30T14:33:49;2.45;;;1.30;;
2562;SDS011;1291;51.420;6.970;2023-04-30T14:36:14;1.58;;;1.30;;
2562;SDS011;1291;51.420;6.970;2023-04-30T14:38:40;3.30;;;1.98;;
2562;SDS011;1291;51.420;6.970;2023-04-30T14:41:05;2.22;;;1.40;;
2562;SDS011;1291;51.420;6.970;2023-04-30T14:43:31;2.78;;;1.40;;
2562;SDS011;1291;51.420;6.970;2023-04-30T14:45:56;1.55;;;1.40;;
2562;SDS011;1291;51.420;6.970;2023-04-30T14:48:22;2.80;;;2.10;;
2562;SDS011;1291;51.420;6.970;2023-04-30T14:50:47;4.18;;;1.50;;
2562;SDS011;1291;51.420;6.970;2023-04-30T14:53:12;2.22;;;1.40;;
2562;SDS011;1291;51.420;6.970;2023-04-30T14:55:38;2.22;;;1.50;;
2562;SDS011;1291;51.420;6.970;2023-04-30T14:58:03;1.42;;;1.33;;
2562;SDS011;1291;51.420;6.970;2023-04-30T15:00:29;1.48;;;1.38;;
2562;SDS011;1291;51.420;6.970;2023-04-30T15:02:55;1.50;;;1.40;;
2562;SDS011;1291;51.420;6.970;2023-04-30T15:05:21;2.08;;;1.40;;
2562;SDS011;1291;51.420;6.970;2023-04-30T15:07:46;1.40;;;1.30;;
2562;SDS011;1291;51.420;6.970;2023-04-30T15:10:11;4.00;;;1.73;;
2562;SDS011;1291;51.420;6.970;2023-04-30T15:12:37;1.48;;;1.38;;
2562;SDS011;1291;51.420;6.970;2023-04-30T15:15:03;2.40;;;1.60;;
2562;SDS011;1291;51.420;6.970;2023-04-30T15:17:32;1.67;;;1.50;;
2562;SDS011;1291;51.420;6.970;2023-04-30T15:20:00;2.25;;;1.50;;
2562;SDS011;1291;51.420;6.970;2023-04-30T15:22:29;2.67;;;1.70;;
2562;SDS011;1291;51.420;6.970;2023-04-30T15:24:58;2.05;;;1.77;;
2562;SDS011;1291;51.420;6.970;2023-04-30T15:27:24;2.05;;;1.50;;
2562;SDS011;1291;51.420;6.970;2023-04-30T15:29:51;3.70;;;1.65;;
2562;SDS011;1291;51.420;6.970;2023-04-30T15:32:17;2.70;;;1.58;;
2562;SDS011;1291;51.420;6.970;2023-04-30T15:34:42;2.92;;;1.70;;
2562;SDS011;1291;51.420;6.970;2023-04-30T15:37:08;2.22;;;1.50;;
2562;SDS011;1291;51.420;6.970;2023-04-30T15:39:33;3.67;;;1.58;;
2562;SDS011;1291;51.420;6.970;2023-04-30T15:41:59;1.95;;;1.63;;
2562;SDS011;1291;51.420;6.970;2023-04-30T15:44:24;2.55;;;1.42;;
2562;SDS011;1291;51.420;6.970;2023-04-30T15:46:50;2.17;;;1.50;;
2562;SDS011;1291;51.420;6.970;2023-04-30T15:49:15;2.17;;;1.30;;
2562;SDS011;1291;51.420;6.970;2023-04-30T15:51:41;5.47;;;1.88;;
2562;SDS011;1291;51.420;6.970;2023-04-30T15:54:09;1.80;;;1.42;;
2562;SDS011;1291;51.420;6.970;2023-04-30T15:56:37;2.25;;;1.50;;
2562;SDS011;1291;51.420;6.970;2023-04-30T15:59:03;4.07;;;1.52;;
2562;SDS011;1291;51.420;6.970;2023-04-30T16:01:29;3.45;;;1.40;;
2562;SDS011;1291;51.420;6.970;2023-04-30T16:03:54;1.27;;;1.17;;
2562;SDS011;1291;51.420;6.970;2023-04-30T16:06:20;2.25;;;1.50;;
2562;SDS011;1291;51.420;6.970;2023-04-30T16:08:45;2.60;;;1.30;;
2562;SDS011;1291;51.420;6.970;2023-04-30T16:11:10;4.25;;;1.13;;
2562;SDS011;1291;51.420;6.970;2023-04-30T16:13:36;2.40;;;1.30;;
2562;SDS011;1291;51.420;6.970;2023-04-30T16:16:01;3.08;;;1.40;;
2562;SDS011;1291;51.420;6.970;2023-04-30T16:18:28;2.70;;;1.90;;
2562;SDS011;1291;51.420;6.970;2023-04-30T16:20:54;3.42;;;1.55;;
2562;SDS011;1291;51.420;6.970;2023-04-30T16:23:20;2.22;;;1.50;;
2562;SDS011;1291;51.420;6.970;2023-04-30T16:25:46;1.80;;;1.50;;
2562;SDS011;1291;51.420;6.970;2023-04-30T16:28:11;2.40;;;1.40;;
2562;SDS011;1291;51.420;6.970;2023-04-30T16:30:37;4.95;;;1.67;;
2562;SDS011;1291;51.420;6.970;2023-04-30T16:33:02;4.50;;;1.67;;
2562;SDS011;1291;51.420;6.970;2023-04-30T16:35:27;3.85;;;1.35;;
2562;SDS011;1291;51.420;6.970;2023-04-30T16:37:53;1.85;;;1.40;;
2562;SDS011;1291;51.420;6.970;2023-04-30T16:40:19;1.95;;;1.33;;
2562;SDS011;1291;51.420;6.970;2023-04-30T16:42:44;4.68;;;2.03;;
2562;SDS011;1291;51.420;6.970;2023-04-30T16:45:09;5.00;;;1.80;;
2562;SDS011;1291;51.420;6.970;2023-04-30T16:47:38;1.95;;;1.75;;
2562;SDS011;1291;51.420;6.970;2023-04-30T16:50:04;2.42;;;1.63;;
2562;SDS011;1291;51.420;6.970;2023-04-30T16:52:31;2.38;;;1.38;;
2562;SDS011;1291;51.420;6.970;2023-04-30T16:54:57;5.32;;;1.75;;
2562;SDS011;1291;51.420;6.970;2023-04-30T16:57:22;3.85;;;1.63;;
2562;SDS011;1291;51.420;6.970;2023-04-30T16:59:49;5.22;;;1.60;;
2562;SDS011;1291;51.420;6.970;2023-04-30T17:02:15;2.80;;;1.50;;
2562;SDS011;1291;51.420;6.970;2023-04-30T17:04:40;3.08;;;1.50;;
2562;SDS011;1291;51.420;6.970;2023-04-30T17:07:06;3.65;;;1.50;;
2562;SDS011;1291;51.420;6.970;2023-04-30T17:09:31;2.90;;;1.60;;
2562;SDS011;1291;51.420;6.970;2023-04-30T17:11:56;4.00;;;1.40;;
2562;SDS011;1291;51.420;6.970;2023-04-30T17:14:22;2.75;;;1.30;;
2562;SDS011;1291;51.420;6.970;2023-04-30T17:16:47;3.38;;;1.65;;
2562;SDS011;1291;51.420;6.970;2023-04-30T17:19:12;1.80;;;1.10;;
2562;SDS011;1291;51.420;6.970;2023-04-30T17:21:38;1.30;;;1.20;;
2562;SDS011;1291;51.420;6.970;2023-04-30T17:24:03;2.53;;;1.33;;
2562;SDS011;1291;51.420;6.970;2023-04-30T17:26:29;4.80;;;2.05;;
2562;SDS011;1291;51.420;6.970;2023-04-30T17:28:55;1.73;;;1.52;;
2562;SDS011;1291;51.420;6.970;2023-04-30T17:31:23;1.73;;;1.30;;
2562;SDS011;1291;51.420;6.970;2023-04-30T17:33:49;1.83;;;1.40;;
2562;SDS011;1291;51.420;6.970;2023-04-30T17:36:15;1.55;;;1.25;;
2562;SDS011;1291;51.420;6.970;2023-04-30T17:38:42;2.30;;;1.10;;
2562;SDS011;1291;51.420;6.970;2023-04-30T17:41:07;5.95;;;1.60;;
2562;SDS011;1291;51.420;6.970;2023-04-30T17:43:35;2.88;;;1.38;;
2562;SDS011;1291;51.420;6.970;2023-04-30T17:46:01;2.63;;;1.27;;
2562;SDS011;1291;51.420;6.970;2023-04-30T17:48:26;4.65;;;1.75;;
2562;SDS011;1291;51.420;6.970;2023-04-30T17:50:51;1.98;;;1.35;;
2562;SDS011;1291;51.420;6.970;2023-04-30T17:53:17;5.05;;;1.52;;
2562;SDS011;1291;51.420;6.970;2023-04-30T17:55:42;1.77;;;1.20;;
2562;SDS011;1291;51.420;6.970;2023-04-30T17:58:07;4.32;;;1.60;;
2562;SDS011;1291;51.420;6.970;2023-04-30T18:00:37;2.70;;;1.42;;
2562;SDS011;1291;51.420;6.970;2023-04-30T18:03:03;1.55;;;1.02;;
2562;SDS011;1291;51.420;6.970;2023-04-30T18:05:31;2.42;;;1.38;;
2562;SDS011;1291;51.420;6.970;2023-04-30T18:07:58;2.03;;;1.23;;
2562;SDS011;1291;51.420;6.970;2023-04-30T18:10:23;1.50;;;1.20;;
2562;SDS011;1291;51.420;6.970;2023-04-30T18:12:48;2.08;;;1.40;;
2562;SDS011;1291;51.420;6.970;2023-04-30T18:15:14;2.80;;;1.58;;
2562;SDS011;1291;51.420;6.970;2023-04-30T18:17:39;2.97;;;1.50;;
2562;SDS011;1291;51.420;6.970;2023-04-30T18:20:06;4.72;;;1.77;;
2562;SDS011;1291;51.420;6.970;2023-04-30T18:22:32;2.92;;;1.35;;
2562;SDS011;1291;51.420;6.970;2023-04-30T18:25:00;1.23;;;1.05;;
2562;SDS011;1291;51.420;6.970;2023-04-30T18:27:25;3.00;;;1.25;;
2562;SDS011;1291;51.420;6.970;2023-04-30T18:29:51;1.33;;;1.10;;
2562;SDS011;1291;51.420;6.970;2023-04-30T18:32:16;3.72;;;1.40;;
2562;SDS011;1291;51.420;6.970;2023-04-30T18:34:42;5.25;;;1.50;;
2562;SDS011;1291;51.420;6.970;2023-04-30T18:37:07;4.13;;;1.70;;
2562;SDS011;1291;51.420;6.970;2023-04-30T18:39:32;3.08;;;1.50;;
2562;SDS011;1291;51.420;6.970;2023-04-30T18:41:57;5.57;;;1.83;;
2562;SDS011;1291;51.420;6.970;2023-04-30T18:44:29;3.00;;;1.60;;
2562;SDS011;1291;51.420;6.970;2023-04-30T18:47:05;2.78;;;1.83;;
2562;SDS011;1291;51.420;6.970;2023-04-30T18:49:33;4.75;;;2.30;;
2562;SDS011;1291;51.420;6.970;2023-04-30T18:51:58;5.72;;;1.98;;
2562;SDS011;1291;51.420;6.970;2023-04-30T18:54:25;3.13;;;1.80;;
2562;SDS011;1291;51.420;6.970;2023-04-30T18:56:50;3.25;;;2.13;;
2562;SDS011;1291;51.420;6.970;2023-04-30T18:59:15;3.70;;;1.73;;
2562;SDS011;1291;51.420;6.970;2023-04-30T19:01:41;4.45;;;1.90;;
2562;SDS011;1291;51.420;6.970;2023-04-30T19:04:07;7.75;;;1.80;;
2562;SDS011;1291;51.420;6.970;2023-04-30T19:06:37;4.68;;;1.77;;
2562;SDS011;1291;51.420;6.970;2023-04-30T19:09:03;2.67;;;1.63;;
2562;SDS011;1291;51.420;6.970;2023-04-30T19:11:32;5.65;;;1.80;;
2562;SDS011;1291;51.420;6.970;2023-04-30T19:13:59;4.30;;;2.50;;
2562;SDS011;1291;51.420;6.970;2023-04-30T19:16:29;3.10;;;1.63;;
2562;SDS011;1291;51.420;6.970;2023-04-30T19:18:54;6.97;;;2.20;;
2562;SDS011;1291;51.420;6.970;2023-04-30T19:21:19;3.42;;;2.08;;
2562;SDS011;1291;51.420;6.970;2023-04-30T19:23:45;4.28;;;2.00;;
2562;SDS011;1291;51.420;6.970;2023-04-30T19:26:10;6.55;;;1.83;;
2562;SDS011;1291;51.420;6.970;2023-04-30T19:28:36;4.95;;;1.88;;
2562;SDS011;1291;51.420;6.970;2023-04-30T19:31:01;5.07;;;1.98;;
2562;SDS011;1291;51.420;6.970;2023-04-30T19:33:27;4.75;;;2.13;;
2562;SDS011;1291;51.420;6.970;2023-04-30T19:35:55;2.33;;;1.80;;
2562;SDS011;1291;51.420;6.970;2023-04-30T19:38:21;3.30;;;2.20;;
2562;SDS011;1291;51.420;6.970;2023-04-30T19:40:48;4.40;;;1.92;;
2562;SDS011;1291;51.420;6.970;2023-04-30T19:43:14;5.45;;;2.20;;
2562;SDS011;1291;51.420;6.970;2023-04-30T19:45:48;3.53;;;1.98;;
2562;SDS011;1291;51.420;6.970;2023-04-30T19:48:18;3.83;;;2.10;;
2562;SDS011;1291;51.420;6.970;2023-04-30T19:50:45;4.32;;;1.88;;
2562;SDS011;1291;51.420;6.970;2023-04-30T19:53:14;2.70;;;1.92;;
2562;SDS011;1291;51.420;6.970;2023-04-30T19:55:40;5.28;;;2.50;;
2562;SDS011;1291;51.420;6.970;2023-04-30T19:58:06;6.82;;;2.70;;
2562;SDS011;1291;51.420;6.970;2023-04-30T20:00:32;6.60;;;2.28;;
2562;SDS011;1291;51.420;6.970;2023-04-30T20:03:00;5.18;;;2.10;;
2562;SDS011;1291;51.420;6.970;2023-04-30T20:05:28;4.13;;;2.15;;
2562;SDS011;1291;51.420;6.970;2023-04-30T20:07:55;3.47;;;1.98;;
2562;SDS011;1291;51.420;6.970;2023-04-30T20:10:21;4.22;;;2.67;;
2562;SDS011;1291;51.420;6.970;2023-04-30T20:12:49;6.03;;;2.20;;
2562;SDS011;1291;51.420;6.970;2023-04-30T20:15:16;4.10;;;2.58;;
2562;SDS011;1291;51.420;6.970;2023-04-30T20:17:41;7.68;;;3.40;;
2562;SDS011;1291;51.420;6.970;2023-04-30T20:20:06;4.90;;;2.50;;
2562;SDS011;1291;51.420;6.970;2023-04-30T20:22:32;6.53;;;2.65;;
2562;SDS011;1291;51.420;6.970;2023-04-30T20:25:04;4.97;;;2.50;;
2562;SDS011;1291;51.420;6.970;2023-04-30T20:27:30;4.10;;;2.70;;
2562;SDS011;1291;51.420;6.970;2023-04-30T20:29:59;7.80;;;2.80;;
2562;SDS011;1291;51.420;6.970;2023-04-30T20:32:25;3.67;;;2.53;;
2562;SDS011;1291;51.420;6.970;2023-04-30T20:34:50;11.00;;;3.20;;
2562;SDS011;1291;51.420;6.970;2023-04-30T20:37:19;7.63;;;2.88;;
2562;SDS011;1291;51.420;6.970;2023-04-30T20:39:44;5.68;;;2.50;;
2562;SDS011;1291;51.420;6.970;2023-04-30T20:42:10;5.28;;;2.75;;
2562;SDS011;1291;51.420;6.970;2023-04-30T20:44:35;9.30;;;3.13;;
2562;SDS011;1291;51.420;6.970;2023-04-30T20:47:01;5.57;;;2.65;;
2562;SDS011;1291;51.420;6.970;2023-04-30T20:49:28;5.90;;;3.33;;
2562;SDS011;1291;51.420;6.970;2023-04-30T20:51:53;6.10;;;3.03;;
2562;SDS011;1291;51.420;6.970;2023-04-30T20:54:19;6.13;;;3.10;;
2562;SDS011;1291;51.420;6.970;2023-04-30T20:56:44;4.93;;;3.03;;
2562;SDS011;1291;51.420;6.970;2023-04-30T20:59:11;6.65;;;2.85;;
2562;SDS011;1291;51.420;6.970;2023-04-30T21:01:37;4.20;;;2.67;;
2562;SDS011;1291;51.420;6.970;2023-04-30T21:04:02;5.40;;;2.83;;
2562;SDS011;1291;51.420;6.970;2023-04-30T21:06:28;4.38;;;2.78;;
2562;SDS011;1291;51.420;6.970;2023-04-30T21:08:55;10.70;;;3.35;;
2562;SDS011;1291;51.420;6.970;2023-04-30T21:11:21;5.50;;;2.88;;
2562;SDS011;1291;51.420;6.970;2023-04-30T21:13:46;5.88;;;3.03;;
2562;SDS011;1291;51.420;6.970;2023-04-30T21:16:12;7.03;;;2.70;;
2562;SDS011;1291;51.420;6.970;2023-04-30T21:18:38;7.15;;;3.35;;
2562;SDS011;1291;51.420;6.970;2023-04-30T21:21:03;4.85;;;3.28;;
2562;SDS011;1291;51.420;6.970;2023-04-30T21:23:29;6.35;;;3.30;;
2562;SDS011;1291;51.420;6.970;2023-04-30T21:25:56;6.10;;;3.28;;
2562;SDS011;1291;51.420;6.970;2023-04-30T21:28:22;8.70;;;3.70;;
2562;SDS011;1291;51.420;6.970;2023-04-30T21:30:47;7.22;;;3.17;;
2562;SDS011;1291;51.420;6.970;2023-04-30T21:33:15;4.53;;;2.83;;
2562;SDS011;1291;51.420;6.970;2023-04-30T21:35:41;7.25;;;3.28;;
2562;SDS011;1291;51.420;6.970;2023-04-30T21:38:06;5.15;;;3.25;;
2562;SDS011;1291;51.420;6.970;2023-04-30T21:40:32;4.60;;;3.25;;
2562;SDS011;1291;51.420;6.970;2023-04-30T21:42:58;5.53;;;2.80;;
2562;SDS011;1291;51.420;6.970;2023-04-30T21:45:24;7.80;;;3.95;;
2562;SDS011;1291;51.420;6.970;2023-04-30T21:47:52;6.85;;;2.80;;
2562;SDS011;1291;51.420;6.970;2023-04-30T21:50:17;6.85;;;3.20;;
2562;SDS011;1291;51.420;6.970;2023-04-30T21:52:42;5.18;;;3.05;;
2562;SDS011;1291;51.420;6.970;2023-04-30T21:55:08;5.68;;;3.28;;
2562;SDS011;1291;51.420;6.970;2023-04-30T21:57:34;8.70;;;3.72;;
2562;SDS011;1291;51.420;6.970;2023-04-30T21:59:59;4.57;;;2.95;;
2562;SDS011;1291;51.420;6.970;2023-04-30T22:02:25;4.18;;;3.03;;
2562;SDS011;1291;51.420;6.970;2023-04-30T22:04:50;10.15;;;3.25;;
2562;SDS011;1291;51.420;6.970;2023-04-30T22:07:21;4.95;;;3.47;;
2562;SDS011;1291;51.420;6.970;2023-04-30T22:09:46;5.78;;;3.20;;
2562;SDS011;1291;51.420;6.970;2023-04-30T22:12:12;10.10;;;4.15;;
2562;SDS011;1291;51.420;6.970;2023-04-30T22:14:37;6.22;;;3.70;;
2562;SDS011;1291;51.420;6.970;2023-04-30T22:17:03;7.07;;;3.75;;
2562;SDS011;1291;51.420;6.970;2023-04-30T22:19:28;6.28;;;3.58;;
2562;SDS011;1291;51.420;6.970;2023-04-30T22:21:54;7.03;;;3.90;;
2562;SDS011;1291;51.420;6.970;2023-04-30T22:24:20;7.50;;;3.75;;
2562;SDS011;1291;51.420;6.970;2023-04-30T22:26:45;5.75;;;4.05;;
2562;SDS011;1291;51.420;6.970;2023-04-30T22:29:10;7.95;;;3.65;;
2562;SDS011;1291;51.420;6.970;2023-04-30T22:31:36;8.13;;;3.65;;
2562;SDS011;1291;51.420;6.970;2023-04-30T22:34:01;8.90;;;3.70;;
2562;SDS011;1291;51.420;6.970;2023-04-30T22:36:27;7.03;;;4.07;;
2562;SDS011;1291;51.420;6.970;2023-04-30T22:38:52;9.32;;;3.78;;
2562;SDS011;1291;51.420;6.970;2023-04-30T22:41:18;8.35;;;4.00;;
2562;SDS011;1291;51.420;6.970;2023-04-30T22:43:44;6.05;;;3.80;;
2562;SDS011;1291;51.420;6.970;2023-04-30T22:46:11;7.43;;;3.80;;
2562;SDS011;1291;51.420;6.970;2023-04-30T22:48:40;4.45;;;3.30;;
2562;SDS011;1291;51.420;6.970;2023-04-30T22:51:06;7.82;;;3.88;;
2562;SDS011;1291;51.420;6.970;2023-04-30T22:53:32;8.10;;;3.45;;
2562;SDS011;1291;51.420;6.970;2023-04-30T22:55:58;7.32;;;3.33;;
2562;SDS011;1291;51.420;6.970;2023-04-30T22:58:27;6.07;;;3.70;;
2562;SDS011;1291;51.420;6.970;2023-04-30T23:00:55;7.28;;;3.10;;
2562;SDS011;1291;51.420;6.970;2023-04-30T23:03:20;6.85;;;4.13;;
2562;SDS011;1291;51.420;6.970;2023-04-30T23:05:46;9.68;;;3.83;;
2562;SDS011;1291;51.420;6.970;2023-04-30T23:08:15;6.35;;;3.90;;
2562;SDS011;1291;51.420;6.970;2023-04-30T23:10:43;6.22;;;4.25;;
2562;SDS011;1291;51.420;6.970;2023-04-30T23:13:09;6.13;;;3.28;;
2562;SDS011;1291;51.420;6.970;2023-04-30T23:15:34;9.10;;;3.63;;
2562;SDS011;1291;51.420;6.970;2023-04-30T23:18:00;8.55;;;3.78;;
2562;SDS011;1291;51.420;6.970;2023-04-30T23:20:25;6.28;;;3.33;;
2562;SDS011;1291;51.420;6.970;2023-04-30T23:22:51;5.72;;;3.75;;
2562;SDS011;1291;51.420;6.970;2023-04-30T23:25:16;5.05;;;3.70;;
2562;SDS011;1291;51.420;6.970;2023-04-30T23:27:42;5.72;;;3.33;;
2562;SDS011;1291;51.420;6.970;2023-04-30T23:30:08;8.55;;;3.88;;
2562;SDS011;1291;51.420;6.970;2023-04-30T23:32:34;5.70;;;3.45;;
2562;SDS011;1291;51.420;6.970;2023-04-30T23:35:00;5.20;;;3.33;;
2562;SDS011;1291;51.420;6.970;2023-04-30T23:37:25;8.18;;;3.95;;
2562;SDS011;1291;51.420;6.970;2023-04-30T23:39:51;6.38;;;3.67;;
2562;SDS011;1291;51.420;6.970;2023-04-30T23:42:18;6.72;;;3.78;;
2562;SDS011;1291;51.420;6.970;2023-04-30T23:44:43;4.82;;;3.50;;
2562;SDS011;1291;51.420;6.970;2023-04-30T23:47:08;5.25;;;3.25;;
2562;SDS011;1291;51.420;6.970;2023-04-30T23:49:34;6.80;;;3.42;;
2562;SDS011;1291;51.420;6.970;2023-04-30T23:52:00;5.07;;;3.03;;
2562;SDS011;1291;51.420;6.970;2023-04-30T23:54:25;6.25;;;3.40;;
2562;SDS011;1291;51.420;6.970;2023-04-30T23:56:51;6.40;;;3.47;;
2562;SDS011;1291;51.420;6.970;2023-04-30T23:59:16;3.63;;;3.10;;
